createdAt,value
2017-12-04T00:01:08.831Z,99.20
2017-12-04T00:03:36.340Z,99.30
2017-12-04T00:06:03.839Z,99.10
2017-12-04T00:08:32.069Z,99.10
2017-12-04T00:10:59.672Z,99.10
2017-12-04T00:13:27.949Z,99.10
2017-12-04T00:15:56.182Z,99.20
2017-12-04T00:18:23.700Z,99.10
2017-12-04T00:20:51.240Z,99.10
2017-12-04T00:23:18.755Z,99.10
2017-12-04T00:25:46.280Z,99.20
2017-12-04T00:28:13.713Z,99.30
2017-12-04T00:30:41.161Z,99.00
2017-12-04T00:33:08.728Z,99.10
2017-12-04T00:35:36.190Z,99.20
2017-12-04T00:38:03.686Z,99.20
2017-12-04T00:40:31.173Z,99.20
2017-12-04T00:42:59.454Z,99.30
2017-12-04T00:45:26.940Z,99.30
2017-12-04T00:47:54.437Z,99.30
2017-12-04T00:50:21.955Z,99.30
2017-12-04T00:52:49.435Z,99.30
2017-12-04T00:55:16.973Z,99.30
2017-12-04T00:57:44.449Z,99.30
2017-12-04T01:00:11.955Z,99.30
2017-12-04T01:02:39.417Z,99.20
2017-12-04T01:05:07.022Z,99.20
2017-12-04T01:07:34.436Z,99.10
2017-12-04T01:10:01.985Z,99.20
2017-12-04T01:12:29.466Z,99.30
2017-12-04T01:14:56.913Z,99.30
2017-12-04T01:17:24.387Z,99.20
2017-12-04T01:19:51.889Z,99.10
2017-12-04T01:22:20.136Z,99.10
2017-12-04T01:24:47.640Z,99.10
2017-12-04T01:27:15.091Z,99.10
2017-12-04T01:29:43.324Z,99.10
2017-12-04T01:32:10.883Z,99.10
2017-12-04T01:34:38.321Z,99.20
2017-12-04T01:37:05.913Z,99.20
2017-12-04T01:39:33.400Z,99.30
2017-12-04T01:42:00.906Z,99.40
2017-12-04T01:44:28.378Z,99.30
2017-12-04T01:46:55.856Z,99.40
2017-12-04T01:49:23.342Z,99.50
2017-12-04T01:51:50.877Z,99.30
2017-12-04T01:54:18.315Z,99.30
2017-12-04T01:56:45.817Z,99.20
2017-12-04T01:59:13.277Z,99.40
2017-12-04T02:01:40.802Z,99.40
2017-12-04T02:04:08.277Z,99.10
2017-12-04T02:06:35.812Z,99.20
2017-12-04T02:09:03.261Z,99.30
2017-12-04T02:11:30.828Z,99.20
2017-12-04T02:13:58.297Z,99.30
2017-12-04T02:16:25.803Z,99.30
2017-12-04T02:18:53.257Z,99.40
2017-12-04T02:21:20.755Z,99.70
2017-12-04T02:23:48.217Z,99.20
2017-12-04T02:26:15.702Z,99.20
2017-12-04T02:28:43.234Z,99.10
2017-12-04T02:31:10.774Z,99.10
2017-12-04T02:33:39.017Z,99.20
2017-12-04T02:36:06.452Z,99.20
2017-12-04T02:38:33.951Z,99.30
2017-12-04T02:41:02.169Z,99.50
2017-12-04T02:43:29.644Z,99.30
2017-12-04T02:45:57.117Z,99.40
2017-12-04T02:48:24.667Z,99.40
2017-12-04T02:50:52.150Z,99.80
2017-12-04T02:53:19.647Z,99.50
2017-12-04T02:55:47.146Z,99.50
2017-12-04T02:58:14.618Z,99.50
2017-12-04T03:00:42.096Z,99.30
2017-12-04T03:03:09.590Z,99.20
2017-12-04T03:05:37.796Z,99.10
2017-12-04T03:08:05.301Z,99.10
2017-12-04T03:10:32.762Z,99.10
2017-12-04T03:13:00.225Z,99.20
2017-12-04T03:15:27.720Z,99.20
2017-12-04T03:17:55.201Z,99.40
2017-12-04T03:20:22.711Z,99.20
2017-12-04T03:22:50.177Z,99.10
2017-12-04T03:25:17.666Z,99.30
2017-12-04T03:27:45.118Z,99.30
2017-12-04T03:30:12.600Z,99.30
2017-12-04T03:32:40.876Z,99.40
2017-12-04T03:35:08.338Z,99.40
2017-12-04T03:37:35.920Z,99.40
2017-12-04T03:40:04.152Z,99.50
2017-12-04T03:42:31.620Z,99.50
2017-12-04T03:44:59.118Z,99.50
2017-12-04T03:47:27.350Z,99.60
2017-12-04T03:49:54.839Z,99.60
2017-12-04T03:52:22.323Z,99.50
2017-12-04T03:54:50.626Z,99.50
2017-12-04T03:57:18.048Z,99.50
2017-12-04T03:59:45.592Z,99.60
2017-12-04T04:02:13.040Z,99.60
2017-12-04T04:04:40.496Z,99.60
2017-12-04T04:07:08.020Z,99.30
2017-12-04T04:09:36.268Z,99.40
2017-12-04T04:12:03.714Z,99.40
2017-12-04T04:14:31.184Z,99.30
2017-12-04T04:16:58.718Z,99.40
2017-12-04T04:19:26.137Z,99.30
2017-12-04T04:21:53.625Z,99.20
2017-12-04T04:24:21.891Z,98.90
2017-12-04T04:26:50.172Z,99.10
2017-12-04T04:29:18.466Z,99.20
2017-12-04T04:31:46.667Z,99.30
2017-12-04T04:34:14.124Z,99.20
2017-12-04T04:36:41.628Z,99.30
2017-12-04T04:39:09.125Z,99.40
2017-12-04T04:41:37.449Z,99.40
2017-12-04T04:44:04.921Z,99.40
2017-12-04T04:46:32.419Z,99.50
2017-12-04T04:48:59.905Z,99.60
2017-12-04T04:51:27.373Z,99.40
2017-12-04T04:53:54.890Z,99.40
2017-12-04T04:56:22.341Z,99.40
2017-12-04T04:58:49.808Z,99.50
2017-12-04T05:01:17.301Z,99.50
2017-12-04T05:03:44.730Z,99.50
2017-12-04T05:06:12.221Z,99.60
2017-12-04T05:08:39.732Z,99.60
2017-12-04T05:11:07.950Z,99.60
2017-12-04T05:13:35.396Z,99.60
2017-12-04T05:16:03.008Z,99.70
2017-12-04T05:18:30.421Z,99.60
2017-12-04T05:20:57.877Z,99.60
2017-12-04T05:23:25.477Z,99.60
2017-12-04T05:25:52.932Z,99.70
2017-12-04T05:28:20.425Z,99.40
2017-12-04T05:30:47.906Z,99.50
2017-12-04T05:33:15.477Z,99.60
2017-12-04T05:35:42.921Z,99.60
2017-12-04T05:38:10.404Z,99.60
2017-12-04T05:40:37.902Z,99.70
2017-12-04T05:43:05.368Z,99.50
2017-12-04T05:45:32.831Z,99.50
2017-12-04T05:48:00.360Z,99.50
2017-12-04T05:50:27.808Z,99.60
2017-12-04T05:52:55.317Z,99.60
2017-12-04T05:55:22.785Z,99.70
2017-12-04T05:57:50.347Z,99.50
2017-12-04T06:00:17.846Z,99.60
2017-12-04T06:02:46.058Z,99.60
2017-12-04T06:05:13.506Z,99.60
2017-12-04T06:07:41.015Z,99.70
2017-12-04T06:10:08.422Z,99.70
2017-12-04T06:12:35.882Z,99.80
2017-12-04T06:15:03.335Z,99.70
2017-12-04T06:17:31.599Z,99.70
2017-12-04T06:19:59.108Z,99.60
2017-12-04T06:22:26.560Z,99.70
2017-12-04T06:24:54.050Z,99.60
2017-12-04T06:27:21.507Z,99.70
2017-12-04T06:29:49.079Z,99.50
2017-12-04T06:32:16.551Z,99.60
2017-12-04T06:34:44.075Z,99.60
2017-12-04T06:37:12.303Z,99.60
2017-12-04T06:39:39.809Z,99.50
2017-12-04T06:42:07.297Z,99.50
2017-12-04T06:44:34.788Z,99.50
2017-12-04T06:47:02.267Z,99.50
2017-12-04T06:49:29.741Z,99.40
2017-12-04T06:51:57.987Z,99.60
2017-12-04T06:54:25.475Z,99.60
2017-12-04T06:56:52.917Z,99.50
2017-12-04T06:59:20.399Z,99.50
2017-12-04T07:01:47.978Z,99.60
2017-12-04T07:04:15.379Z,99.60
2017-12-04T07:06:42.846Z,99.60
2017-12-04T07:09:10.332Z,99.70
2017-12-04T07:11:37.832Z,99.90
2017-12-04T07:14:05.298Z,99.70
2017-12-04T07:16:32.806Z,99.60
2017-12-04T07:19:00.293Z,99.70
2017-12-04T07:21:27.836Z,99.40
2017-12-04T07:23:55.279Z,99.50
2017-12-04T07:26:22.712Z,99.50
2017-12-04T07:28:50.199Z,99.60
2017-12-04T07:31:18.442Z,99.70
2017-12-04T07:33:45.897Z,99.70
2017-12-04T07:36:14.206Z,99.90
2017-12-04T07:38:41.657Z,99.60
2017-12-04T07:41:09.166Z,99.70
2017-12-04T07:43:36.656Z,99.60
2017-12-04T07:46:04.300Z,99.60
2017-12-04T07:48:31.791Z,99.70
2017-12-04T07:51:00.021Z,99.60
2017-12-04T07:53:27.525Z,99.60
2017-12-04T07:55:54.980Z,99.50
2017-12-04T07:58:22.469Z,99.60
2017-12-04T08:00:50.752Z,99.40
2017-12-04T08:03:19.045Z,99.50
2017-12-04T08:05:46.523Z,99.50
2017-12-04T08:08:14.043Z,99.40
2017-12-04T08:10:41.470Z,99.30
2017-12-04T08:13:09.077Z,99.20
2017-12-04T08:15:36.527Z,99.30
2017-12-04T08:18:04.039Z,99.40
2017-12-04T08:20:31.514Z,99.30
2017-12-04T08:22:59.060Z,99.30
2017-12-04T08:25:26.527Z,99.40
2017-12-04T08:27:54.125Z,99.50
2017-12-04T08:30:21.616Z,99.40
2017-12-04T08:32:49.095Z,99.50
2017-12-04T08:35:17.394Z,99.70
2017-12-04T08:37:45.643Z,99.70
2017-12-04T08:40:13.108Z,99.70
2017-12-04T08:42:41.350Z,99.40
2017-12-04T08:45:08.841Z,99.40
2017-12-04T08:47:36.329Z,99.50
2017-12-04T08:50:03.795Z,99.30
2017-12-04T08:52:31.332Z,99.40
2017-12-04T08:54:58.761Z,99.10
2017-12-04T08:57:26.300Z,99.10
2017-12-04T08:59:53.737Z,99.00
2017-12-04T09:02:22.023Z,99.10
2017-12-04T09:04:49.507Z,99.10
2017-12-04T09:07:16.973Z,98.70
2017-12-04T09:09:44.439Z,98.80
2017-12-04T09:12:11.926Z,98.70
2017-12-04T09:14:39.417Z,98.70
2017-12-04T09:17:06.899Z,98.70
2017-12-04T09:19:35.131Z,98.70
2017-12-04T09:22:02.704Z,98.70
2017-12-04T09:24:30.139Z,98.70
2017-12-04T09:26:57.690Z,98.70
2017-12-04T09:29:25.892Z,98.70
2017-12-04T09:31:53.375Z,98.70
2017-12-04T09:34:20.834Z,98.60
2017-12-04T09:36:48.286Z,98.50
2017-12-04T09:39:15.775Z,98.60
2017-12-04T09:41:43.223Z,98.70
2017-12-04T09:44:10.694Z,98.30
2017-12-04T09:46:38.161Z,98.30
2017-12-04T09:49:05.592Z,98.10
2017-12-04T09:51:33.088Z,98.10
2017-12-04T09:54:00.542Z,98.20
2017-12-04T09:56:28.068Z,98.30
2017-12-04T09:58:55.529Z,98.50
2017-12-04T10:01:23.020Z,98.50
2017-12-04T10:03:50.493Z,98.50
2017-12-04T10:06:18.021Z,98.80
2017-12-04T10:08:45.460Z,98.80
2017-12-04T10:11:12.997Z,98.80
2017-12-04T10:13:40.455Z,98.80
2017-12-04T10:16:08.733Z,98.80
2017-12-04T10:18:36.268Z,98.80
2017-12-04T10:21:03.756Z,98.80
2017-12-04T10:23:31.172Z,98.80
2017-12-04T10:25:58.790Z,98.90
2017-12-04T10:28:26.260Z,99.00
2017-12-04T10:30:53.728Z,98.80
2017-12-04T10:33:21.210Z,99.20
2017-12-04T10:35:48.672Z,99.20
2017-12-04T10:38:16.181Z,99.20
2017-12-04T10:40:43.782Z,99.20
2017-12-04T10:43:11.210Z,99.20
2017-12-04T10:45:38.700Z,98.90
2017-12-04T10:48:06.951Z,98.90
2017-12-04T10:50:34.438Z,98.90
2017-12-04T10:53:01.970Z,98.70
2017-12-04T10:55:29.478Z,98.70
2017-12-04T10:57:56.956Z,98.40
2017-12-04T11:00:24.411Z,98.60
2017-12-04T11:02:51.954Z,99.00
2017-12-04T11:05:20.286Z,99.20
2017-12-04T11:07:47.712Z,99.20
2017-12-04T11:10:15.977Z,99.30
2017-12-04T11:12:44.211Z,99.40
2017-12-04T11:15:11.679Z,99.40
2017-12-04T11:17:39.133Z,99.20
2017-12-04T11:20:06.694Z,99.40
2017-12-04T11:22:34.115Z,99.50
2017-12-04T11:25:02.390Z,99.50
2017-12-04T11:27:30.633Z,99.40
2017-12-04T11:29:58.141Z,99.40
2017-12-04T11:32:25.639Z,99.50
2017-12-04T11:34:53.897Z,99.10
2017-12-04T11:37:22.158Z,99.10
2017-12-04T11:39:49.570Z,99.10
2017-12-04T11:42:17.107Z,99.20
2017-12-04T11:44:44.577Z,99.30
2017-12-04T11:47:12.050Z,99.20
2017-12-04T11:49:39.544Z,99.30
2017-12-04T11:52:06.990Z,99.30
2017-12-04T11:54:34.519Z,99.30
2017-12-04T11:57:01.976Z,99.40
2017-12-04T11:59:29.557Z,99.50
2017-12-04T12:01:57.774Z,99.60
2017-12-04T12:04:25.268Z,99.60
2017-12-04T12:06:53.550Z,99.50
2017-12-04T12:09:21.114Z,99.50
2017-12-04T12:11:49.359Z,99.80
2017-12-04T12:14:16.812Z,99.70
2017-12-04T12:16:44.347Z,99.70
2017-12-04T12:19:11.807Z,99.70
2017-12-04T12:21:39.278Z,99.80
2017-12-04T12:24:06.751Z,99.70
2017-12-04T12:26:34.202Z,99.70
2017-12-04T12:29:01.788Z,99.80
2017-12-04T12:31:29.219Z,99.90
2017-12-04T12:33:56.864Z,99.80
2017-12-04T12:36:25.189Z,99.60
2017-12-04T12:38:52.648Z,99.60
2017-12-04T12:41:20.182Z,99.80
2017-12-04T12:43:47.654Z,99.60
2017-12-04T12:46:15.137Z,99.70
2017-12-04T12:48:42.621Z,99.80
2017-12-04T12:51:10.093Z,99.80
2017-12-04T12:53:37.620Z,99.50
2017-12-04T12:56:05.808Z,99.20
2017-12-04T12:58:33.402Z,99.20
2017-12-04T13:01:00.818Z,99.30
2017-12-04T13:03:28.302Z,99.20
2017-12-04T13:05:55.797Z,99.10
2017-12-04T13:08:23.353Z,99.00
2017-12-04T13:10:50.808Z,99.00
2017-12-04T13:13:18.307Z,99.10
2017-12-04T13:15:45.903Z,99.10
2017-12-04T13:18:13.418Z,99.00
2017-12-04T13:20:41.053Z,98.80
2017-12-04T13:23:08.583Z,98.70
2017-12-04T13:25:36.079Z,98.40
2017-12-04T13:28:03.596Z,98.20
2017-12-04T13:30:31.048Z,98.20
2017-12-04T13:32:59.329Z,97.70
2017-12-04T13:35:27.612Z,97.80
2017-12-04T13:37:55.852Z,97.50
2017-12-04T13:40:23.452Z,97.50
2017-12-04T13:42:50.896Z,97.40
2017-12-04T13:45:18.433Z,97.20
2017-12-04T13:47:45.918Z,97.30
2017-12-04T13:50:13.386Z,97.50
2017-12-04T13:52:40.871Z,97.60
2017-12-04T13:55:08.312Z,97.70
2017-12-04T13:57:35.843Z,97.60
2017-12-04T14:00:04.214Z,97.60
2017-12-04T14:02:31.704Z,97.80
2017-12-04T14:04:59.268Z,97.80
2017-12-04T14:07:26.852Z,98.00
2017-12-04T14:09:54.737Z,97.90
2017-12-04T14:12:22.424Z,98.00
2017-12-04T14:14:50.836Z,98.20
2017-12-04T14:17:19.214Z,98.00
2017-12-04T14:19:47.463Z,98.00
2017-12-04T14:22:15.829Z,98.10
2017-12-04T14:24:43.309Z,98.10
2017-12-04T14:27:10.746Z,98.20
2017-12-04T14:29:38.345Z,98.30
2017-12-04T14:32:05.831Z,98.10
2017-12-04T14:34:33.237Z,97.80
2017-12-04T14:37:01.553Z,97.90
2017-12-04T14:39:29.045Z,97.90
2017-12-04T14:41:56.590Z,97.20
2017-12-04T14:44:24.088Z,96.80
2017-12-04T14:46:51.526Z,96.90
2017-12-04T14:49:19.760Z,97.00
2017-12-04T14:51:47.994Z,97.30
2017-12-04T14:54:15.488Z,97.30
2017-12-04T14:56:42.987Z,97.60
2017-12-04T14:59:10.486Z,98.00
2017-12-04T15:01:38.029Z,97.90
2017-12-04T15:04:05.476Z,98.00
2017-12-04T15:06:32.981Z,98.20
2017-12-04T15:09:00.470Z,98.10
2017-12-04T15:11:28.742Z,98.30
2017-12-04T15:13:56.204Z,98.20
2017-12-04T15:16:23.746Z,98.00
2017-12-04T15:18:51.296Z,98.30
2017-12-04T15:21:18.819Z,98.10
2017-12-04T15:23:46.268Z,98.40
2017-12-04T15:26:13.733Z,98.10
2017-12-04T15:28:41.219Z,97.90
2017-12-04T15:31:08.673Z,97.70
2017-12-04T15:33:36.905Z,97.80
2017-12-04T15:36:04.407Z,97.80
2017-12-04T15:38:31.847Z,97.80
2017-12-04T15:40:59.353Z,97.60
2017-12-04T15:43:26.833Z,97.60
2017-12-04T15:45:54.401Z,97.80
2017-12-04T15:48:21.891Z,97.80
2017-12-04T15:50:49.351Z,97.80
2017-12-04T15:53:17.007Z,97.90
2017-12-04T15:55:44.459Z,97.70
2017-12-04T15:58:11.960Z,97.30
2017-12-04T16:00:39.510Z,97.40
2017-12-04T16:03:07.015Z,97.20
2017-12-04T16:05:34.455Z,97.10
2017-12-04T16:08:01.918Z,97.40
2017-12-04T16:10:29.431Z,97.30
2017-12-04T16:12:56.919Z,97.30
2017-12-04T16:15:24.427Z,97.30
2017-12-04T16:17:52.653Z,97.30
2017-12-04T16:20:20.126Z,97.30
2017-12-04T16:22:47.592Z,96.70
2017-12-04T16:25:15.059Z,96.20
2017-12-04T16:27:42.603Z,96.30
2017-12-04T16:30:10.094Z,95.90
2017-12-04T16:32:37.617Z,95.70
2017-12-04T16:35:05.088Z,96.00
2017-12-04T16:37:32.600Z,96.50
2017-12-04T16:40:00.862Z,96.80
2017-12-04T16:42:28.331Z,96.70
2017-12-04T16:44:55.800Z,96.90
2017-12-04T16:47:23.318Z,97.20
2017-12-04T16:49:50.850Z,97.30
2017-12-04T16:52:18.386Z,97.20
2017-12-04T16:54:45.988Z,97.20
2017-12-04T16:57:13.613Z,97.20
2017-12-04T16:59:41.029Z,97.50
2017-12-04T17:02:09.368Z,97.80
2017-12-04T17:04:36.891Z,97.80
2017-12-04T17:07:05.141Z,97.90
2017-12-04T17:09:32.708Z,97.90
2017-12-04T17:12:00.218Z,97.90
2017-12-04T17:14:27.757Z,98.00
2017-12-04T17:16:55.260Z,98.10
2017-12-04T17:19:23.484Z,98.30
2017-12-04T17:21:50.979Z,98.20
2017-12-04T17:24:18.555Z,98.70
2017-12-04T17:26:46.044Z,98.90
2017-12-04T17:29:13.628Z,98.70
2017-12-04T17:31:41.302Z,98.50
2017-12-04T17:34:09.571Z,97.60
2017-12-04T17:36:37.037Z,97.60
2017-12-04T17:39:04.526Z,97.30
2017-12-04T17:41:32.034Z,96.50
2017-12-04T17:44:00.255Z,97.00
2017-12-04T17:46:28.724Z,97.00
2017-12-04T17:48:56.178Z,96.70
2017-12-04T17:51:23.645Z,95.50
2017-12-04T17:53:51.179Z,95.20
2017-12-04T17:56:18.632Z,94.90
2017-12-04T17:58:46.090Z,94.80
2017-12-04T18:01:13.572Z,94.40
2017-12-04T18:03:41.982Z,93.70
2017-12-04T18:06:10.239Z,93.20
2017-12-04T18:08:38.507Z,93.30
2017-12-04T18:11:05.932Z,93.30
2017-12-04T18:13:33.428Z,93.00
2017-12-04T18:16:01.003Z,92.90
2017-12-04T18:18:28.524Z,91.80
2017-12-04T18:20:56.018Z,91.30
2017-12-04T18:23:23.719Z,91.30
2017-12-04T18:25:51.168Z,91.70
2017-12-04T18:28:19.404Z,92.50
2017-12-04T18:30:47.025Z,92.50
2017-12-04T18:33:14.466Z,92.90
2017-12-04T18:35:42.792Z,93.80
2017-12-04T18:38:10.285Z,93.80
2017-12-04T18:40:37.772Z,94.20
2017-12-04T18:43:05.305Z,94.90
2017-12-04T18:45:34.085Z,94.70
2017-12-04T18:48:03.290Z,94.60
2017-12-04T18:50:30.763Z,94.10
2017-12-04T18:52:58.213Z,94.90
2017-12-04T18:55:25.717Z,94.70
2017-12-04T18:57:53.233Z,95.20
2017-12-04T19:00:21.596Z,95.10
2017-12-04T19:02:50.150Z,95.60
2017-12-04T19:05:19.263Z,95.90
2017-12-04T19:07:47.505Z,96.30
2017-12-04T19:10:15.026Z,96.30
2017-12-04T19:12:43.323Z,96.20
2017-12-04T19:15:10.834Z,96.20
2017-12-04T19:17:38.384Z,96.20
2017-12-04T19:20:05.906Z,95.50
2017-12-04T19:22:33.688Z,95.60
2017-12-04T19:25:01.255Z,95.40
2017-12-04T19:27:28.723Z,95.60
2017-12-04T19:29:57.212Z,95.70
2017-12-04T19:32:24.639Z,96.00
2017-12-04T19:34:52.165Z,96.00
2017-12-04T19:37:19.654Z,95.90
2017-12-04T19:39:47.891Z,96.50
2017-12-04T19:42:15.445Z,96.40
2017-12-04T19:44:42.870Z,96.00
2017-12-04T19:47:10.383Z,96.00
2017-12-04T19:49:37.997Z,96.30
2017-12-04T19:52:06.274Z,96.20
2017-12-04T19:54:34.553Z,96.10
2017-12-04T19:57:02.784Z,95.90
2017-12-04T19:59:30.267Z,95.90
2017-12-04T20:01:57.744Z,95.80
2017-12-04T20:04:25.993Z,96.30
2017-12-04T20:06:53.511Z,96.30
2017-12-04T20:09:20.981Z,96.40
2017-12-04T20:11:48.443Z,96.60
2017-12-04T20:14:15.969Z,96.90
2017-12-04T20:16:43.480Z,97.10
2017-12-04T20:19:11.040Z,97.10
2017-12-04T20:21:38.515Z,97.20
2017-12-04T20:24:06.095Z,97.20
2017-12-04T20:26:33.572Z,97.50
2017-12-04T20:29:01.136Z,97.40
2017-12-04T20:31:28.697Z,97.40
2017-12-04T20:33:56.189Z,97.40
2017-12-04T20:36:23.670Z,97.40
2017-12-04T20:38:51.159Z,97.20
2017-12-04T20:41:18.655Z,97.20
2017-12-04T20:43:46.138Z,97.40
2017-12-04T20:46:14.354Z,97.40
2017-12-04T20:48:41.833Z,97.40
2017-12-04T20:51:09.374Z,97.20
2017-12-04T20:53:36.851Z,97.20
2017-12-04T20:56:04.324Z,97.00
2017-12-04T20:58:31.828Z,97.20
2017-12-04T21:00:59.341Z,97.20
2017-12-04T21:03:26.826Z,97.20
2017-12-04T21:05:54.335Z,97.50
2017-12-04T21:08:22.602Z,97.20
2017-12-04T21:10:50.089Z,97.20
2017-12-04T21:13:17.528Z,97.00
2017-12-04T21:15:45.744Z,97.20
2017-12-04T21:18:13.310Z,97.20
2017-12-04T21:20:41.552Z,97.30
2017-12-04T21:23:09.276Z,97.30
2017-12-04T21:25:37.498Z,97.50
2017-12-04T21:28:04.963Z,97.50
2017-12-04T21:30:32.508Z,97.70
2017-12-04T21:32:59.932Z,97.80
2017-12-04T21:35:27.400Z,98.10
2017-12-04T21:37:54.952Z,97.90
2017-12-04T21:40:22.427Z,98.10
2017-12-04T21:42:49.945Z,98.00
2017-12-04T21:45:18.429Z,97.80
2017-12-04T21:47:46.653Z,97.80
2017-12-04T21:50:14.243Z,97.70
2017-12-04T21:52:41.720Z,97.80
2017-12-04T21:55:09.168Z,98.00
2017-12-04T21:57:36.639Z,98.00
2017-12-04T22:00:04.080Z,97.90
2017-12-04T22:02:31.597Z,97.50
2017-12-04T22:04:59.906Z,97.80
2017-12-04T22:07:27.407Z,97.80
2017-12-04T22:09:54.880Z,97.80
2017-12-04T22:12:22.433Z,97.60
2017-12-04T22:14:49.904Z,97.60
2017-12-04T22:17:17.353Z,97.20
2017-12-04T22:19:44.879Z,97.30
2017-12-04T22:22:12.391Z,97.20
2017-12-04T22:24:39.908Z,97.20
2017-12-04T22:27:07.362Z,97.20
2017-12-04T22:29:34.834Z,97.20
2017-12-04T22:32:02.296Z,97.20
2017-12-04T22:34:29.818Z,97.20
2017-12-04T22:36:58.076Z,97.20
2017-12-04T22:39:25.543Z,97.20
2017-12-04T22:41:53.063Z,96.90
2017-12-04T22:44:21.284Z,96.80
2017-12-04T22:46:48.765Z,96.80
2017-12-04T22:49:16.280Z,96.90
2017-12-04T22:51:43.801Z,97.20
2017-12-04T22:54:12.066Z,97.20
2017-12-04T22:56:39.531Z,97.20
2017-12-04T22:59:07.058Z,97.20
2017-12-04T23:01:34.527Z,97.20
2017-12-04T23:04:01.960Z,97.10
2017-12-04T23:06:30.333Z,97.50
2017-12-04T23:08:57.798Z,97.20
2017-12-04T23:11:25.293Z,97.00
2017-12-04T23:13:52.750Z,96.90
2017-12-04T23:16:20.212Z,97.20
2017-12-04T23:18:47.714Z,97.40
2017-12-04T23:21:15.209Z,97.50
2017-12-04T23:23:42.686Z,97.20
2017-12-04T23:26:10.133Z,97.10
2017-12-04T23:28:37.702Z,97.70
2017-12-04T23:31:05.232Z,97.50
2017-12-04T23:33:33.467Z,97.60
2017-12-04T23:36:01.103Z,97.50
2017-12-04T23:38:28.497Z,97.50
2017-12-04T23:40:55.954Z,97.50
2017-12-04T23:43:23.486Z,97.70
2017-12-04T23:45:50.990Z,97.70
2017-12-04T23:48:18.457Z,97.70
2017-12-04T23:50:45.903Z,97.50
2017-12-04T23:53:13.390Z,97.50
2017-12-04T23:55:40.852Z,97.80
2017-12-04T23:58:08.386Z,97.60
